Time;durP1;ratioP1;P1;durP2;ratioP2;P2;SDS_P1;SDS_P2;PMS_P1;PMS_P2;Temp;Humidity;BMP_temperature;BMP_pressure;BME280_temperature;BME280_humidity;BME280_pressure;Samples;Min_cycle;Max_cycle;Signal;HPM_P1;HPM_P2
2022/01/13 00:00:12;;;;;;;13.70;9.60;;;8.90;99.90;;;8.32;100.00;103577.34;4155479;28;20033;-70
2022/01/13 00:02:13;;;;;;;14.35;10.05;;;8.90;99.90;;;8.34;100.00;103587.78;4152095;28;20042;-70
2022/01/13 00:04:15;;;;;;;13.35;9.43;;;8.80;99.90;;;8.42;100.00;103584.78;4161310;28;20539;-70
2022/01/13 00:06:16;;;;;;;12.60;9.82;;;9.00;99.90;;;8.33;100.00;103579.03;4166186;28;20041;-70
2022/01/13 00:08:17;;;;;;;11.00;8.57;;;9.00;99.90;;;8.17;100.00;103579.78;4146222;28;20523;-70
2022/01/13 00:10:18;;;;;;;13.20;10.07;;;8.30;99.90;;;8.23;100.00;103580.38;4163861;28;20045;-70
2022/01/13 00:12:20;;;;;;;15.50;8.95;;;8.90;99.90;;;8.25;100.00;103586.41;4150381;28;20053;-70
2022/01/13 00:14:26;;;;;;;14.65;9.57;;;9.10;99.90;;;8.12;100.00;103581.78;4168336;28;20026;-70
2022/01/13 00:16:56;;;;;;;13.52;9.18;;;8.80;99.90;;;8.31;100.00;103587.91;4154298;28;20112;-70
2022/01/13 00:19:30;;;;;;;12.73;8.32;;;9.60;99.90;;;8.14;100.00;103583.41;4151018;28;20030;-71
2022/01/13 00:21:36;;;;;;;13.65;8.93;;;8.80;99.90;;;8.17;100.00;103579.78;4153936;28;20046;-70
2022/01/13 00:23:58;;;;;;;14.32;9.35;;;9.90;99.90;;;8.07;100.00;103583.75;4157856;28;20029;-70
2022/01/13 00:26:02;;;;;;;11.85;8.45;;;8.80;99.90;;;8.15;100.00;103585.09;4166579;28;20037;-70
2022/01/13 00:28:12;;;;;;;11.35;8.18;;;8.90;99.90;;;8.25;100.00;103582.91;4178661;28;20017;-70
2022/01/13 00:30:17;;;;;;;12.82;9.45;;;8.60;99.90;;;8.24;100.00;103578.59;4150574;28;20077;-70
2022/01/13 00:32:20;;;;;;;;;;;8.80;99.90;;;8.16;100.00;103583.34;4152174;28;20037;-71
2022/01/13 00:34:21;;;;;;;11.93;8.60;;;8.80;99.90;;;7.98;100.00;103571.03;4163756;28;19948;-70
2022/01/13 00:36:29;;;;;;;13.02;9.55;;;8.70;99.90;;;8.18;100.00;103578.88;4166627;28;20116;-71
2022/01/13 00:38:31;;;;;;;10.93;8.70;;;8.70;99.90;;;8.19;100.00;103580.56;4166864;28;20083;-70
2022/01/13 00:40:32;;;;;;;12.40;9.27;;;8.40;99.90;;;8.01;100.00;103569.13;4150319;28;20034;-70
2022/01/13 00:42:33;;;;;;;12.43;8.73;;;8.60;99.90;;;8.01;100.00;103553.34;4165557;28;20064;-70
2022/01/13 00:44:37;;;;;;;10.25;8.68;;;8.70;99.90;;;8.00;100.00;103561.31;4166500;28;20026;-70
2022/01/13 00:46:43;;;;;;;10.93;8.95;;;8.50;99.90;;;8.18;100.00;103571.00;4167768;28;20498;-70
2022/01/13 00:48:44;;;;;;;12.15;9.43;;;8.70;99.90;;;8.06;100.00;103563.66;4150989;28;20034;-71
2022/01/13 00:50:46;;;;;;;16.98;9.73;;;8.70;99.90;;;7.95;100.00;103555.41;4163951;28;20026;-71
2022/01/13 00:52:46;;;;;;;9.07;8.18;;;8.70;99.90;;;7.92;100.00;103563.44;4166597;28;20030;-71
2022/01/13 00:54:47;;;;;;;10.40;8.50;;;8.60;99.90;;;7.79;100.00;103558.72;4174028;28;20118;-71
2022/01/13 00:56:48;;;;;;;11.32;8.70;;;8.60;99.90;;;7.68;100.00;103561.00;4161604;28;20033;-70
2022/01/13 00:58:49;;;;;;;11.55;8.98;;;8.40;99.90;;;7.86;100.00;103569.81;4151196;28;20058;-71
2022/01/13 01:00:50;;;;;;;11.93;9.50;;;8.60;99.90;;;7.87;100.00;103570.69;4175002;28;20072;-70
2022/01/13 01:02:51;;;;;;;10.50;7.97;;;8.50;99.90;;;7.95;100.00;103568.53;4133834;28;20068;-70
2022/01/13 01:04:52;;;;;;;10.85;8.98;;;8.60;99.90;;;7.73;100.00;103572.19;4149991;28;20113;-70
2022/01/13 01:06:54;;;;;;;11.90;8.88;;;8.50;99.90;;;7.63;100.00;103567.38;4163104;28;20444;-71
2022/01/13 01:08:55;;;;;;;11.82;9.40;;;8.70;99.90;;;7.63;100.00;103570.00;4166476;28;20033;-70
2022/01/13 01:10:57;;;;;;;13.27;9.10;;;8.60;99.90;;;7.49;100.00;103570.63;4166088;28;20108;-70
2022/01/13 01:12:58;;;;;;;11.00;9.25;;;8.50;99.90;;;7.67;100.00;103558.44;4160310;28;20040;-70
2022/01/13 01:14:59;;;;;;;11.02;9.60;;;8.40;99.90;;;7.60;100.00;103563.13;4158166;28;20052;-70
2022/01/13 01:17:00;;;;;;;12.25;9.95;;;8.50;99.90;;;7.66;100.00;103562.84;4153645;28;20071;-70
2022/01/13 01:19:05;;;;;;;13.43;9.82;;;8.70;99.90;;;7.71;100.00;103565.25;4158446;28;20056;-70
2022/01/13 01:23:15;;;;;;;11.88;9.95;;;8.30;99.90;;;7.70;100.00;103556.53;4151730;28;20037;-70
2022/01/13 01:27:35;;;;;;;13.68;10.48;;;8.40;99.90;;;7.57;100.00;103552.75;4166228;28;20030;-70
2022/01/13 01:29:41;;;;;;;12.85;10.43;;;8.30;99.90;;;7.49;100.00;103544.38;4166241;28;20026;-71
2022/01/13 01:31:49;;;;;;;12.10;10.20;;;8.20;99.90;;;7.44;100.00;103546.31;4166198;28;20025;-70
2022/01/13 01:34:02;;;;;;;11.93;9.85;;;8.30;99.90;;;7.51;100.00;103553.03;4167499;28;20048;-70
2022/01/13 01:36:04;;;;;;;13.10;9.65;;;8.30;99.90;;;7.51;100.00;103537.25;4167635;28;20032;-70
2022/01/13 01:38:05;;;;;;;15.05;10.43;;;8.30;99.90;;;7.60;100.00;103546.50;4166262;28;20040;-70
2022/01/13 01:40:10;;;;;;;12.57;10.45;;;8.30;99.90;;;7.63;100.00;103549.84;4166258;28;20029;-70
2022/01/13 01:42:11;;;;;;;14.13;10.77;;;8.30;99.90;;;7.56;100.00;103545.78;4165841;28;20029;-70
2022/01/13 01:44:27;;;;;;;13.63;10.55;;;8.30;99.90;;;7.44;100.00;103538.44;4149717;28;20025;-70
2022/01/13 01:46:33;;;;;;;11.68;9.48;;;8.30;99.90;;;7.65;100.00;103547.13;4166039;28;20025;-70
2022/01/13 01:48:36;;;;;;;13.38;9.82;;;8.20;99.90;;;7.56;100.00;103543.16;4166243;28;20033;-70
2022/01/13 01:50:38;;;;;;;11.27;9.50;;;8.30;99.90;;;7.52;100.00;103540.75;4153627;28;20093;-70
2022/01/13 01:52:39;;;;;;;14.07;9.98;;;7.20;99.90;;;7.46;100.00;103538.38;4150081;28;20045;-70
2022/01/13 01:54:40;;;;;;;13.60;10.23;;;8.30;99.90;;;7.52;100.00;103546.84;4153634;28;20036;-70
2022/01/13 01:56:43;;;;;;;13.90;9.95;;;8.30;99.90;;;7.63;100.00;103549.84;4136133;28;20034;-70
2022/01/13 01:58:44;;;;;;;11.50;8.75;;;8.30;99.90;;;7.56;100.00;103545.78;4165559;28;20060;-70
2022/01/13 02:00:47;;;;;;;11.35;9.10;;;8.30;99.90;;;7.66;100.00;103552.34;4169001;28;20045;-70
2022/01/13 02:02:48;;;;;;;10.75;9.65;;;8.40;99.90;;;7.73;100.00;103548.53;4169236;28;20052;-70
2022/01/13 02:04:49;;;;;;;10.45;9.35;;;8.40;99.90;;;7.74;100.00;103554.59;4169138;28;20038;-70
2022/01/13 02:06:50;;;;;;;12.50;9.95;;;8.40;99.90;;;7.76;100.00;103547.53;4168792;28;20033;-72
2022/01/13 02:08:51;;;;;;;11.32;10.02;;;8.50;99.90;;;7.85;100.00;103546.25;4201709;28;20028;-70
2022/01/13 02:10:52;;;;;;;11.60;9.73;;;8.50;99.90;;;7.86;100.00;103543.53;4172851;28;20501;-70
2022/01/13 02:13:02;;;;;;;10.15;8.73;;;8.40;99.90;;;7.74;100.00;103544.09;4136411;28;20541;-70
2022/01/13 02:17:15;;;;;;;10.63;9.52;;;8.80;99.90;;;7.70;100.00;103547.81;4152688;28;20122;-70
2022/01/13 02:19:16;;;;;;;11.52;9.48;;;8.40;99.90;;;7.74;100.00;103541.47;4169856;28;20025;-70
2022/01/13 02:21:19;;;;;;;14.05;9.68;;;8.50;99.90;;;7.71;100.00;103557.38;4163866;28;20034;-70
2022/01/13 02:23:39;;;;;;;10.82;9.23;;;8.40;99.90;;;7.73;100.00;103547.66;4153423;28;20030;-70
2022/01/13 02:25:40;;;;;;;9.75;8.75;;;8.30;99.90;;;7.77;100.00;103555.31;4176787;28;20037;-70
2022/01/13 02:27:42;;;;;;;10.77;9.68;;;8.30;99.90;;;7.78;100.00;103543.03;4184974;28;20025;-70
2022/01/13 02:29:43;;;;;;;8.82;7.88;;;8.50;99.90;;;7.73;100.00;103556.41;4185299;28;20033;-70
2022/01/13 02:31:44;;;;;;;10.38;8.82;;;8.40;99.90;;;7.84;100.00;103552.41;4185191;28;20074;-70
2022/01/13 02:33:45;;;;;;;10.00;8.25;;;8.50;99.90;;;7.90;100.00;103549.50;4152365;28;20025;-70
2022/01/13 02:35:46;;;;;;;9.50;8.48;;;8.50;99.90;;;7.85;100.00;103549.75;4168867;28;20030;-70
2022/01/13 02:37:47;;;;;;;9.73;8.75;;;8.60;99.90;;;7.85;100.00;103551.50;4168578;28;20025;-70
2022/01/13 02:39:48;;;;;;;9.13;8.23;;;8.50;99.90;;;7.82;100.00;103555.97;4152381;28;20056;-70
2022/01/13 02:41:49;;;;;;;9.27;8.38;;;8.50;99.90;;;7.69;100.00;103552.19;4184866;28;20060;-70
2022/01/13 02:43:56;;;;;;;10.18;8.55;;;8.60;99.90;;;7.72;100.00;103561.72;4168762;28;20060;-70
2022/01/13 02:46:18;;;;;;;10.02;8.32;;;8.40;99.90;;;7.73;100.00;103547.66;4168527;28;20033;-70
2022/01/13 02:50:20;;;;;;;9.27;8.38;;;8.30;99.90;;;7.64;100.00;103550.72;4158365;28;20030;-70
2022/01/13 02:52:20;;;;;;;8.25;7.45;;;7.50;99.90;;;7.64;100.00;103548.06;4135651;28;20026;-70
2022/01/13 02:54:22;;;;;;;9.82;8.55;;;8.30;99.90;;;7.67;100.00;103538.28;4139531;28;20052;-70
2022/01/13 02:56:23;;;;;;;9.88;8.88;;;8.40;99.90;;;7.71;100.00;103552.97;4168965;28;20025;-70
2022/01/13 02:58:24;;;;;;;8.65;7.38;;;8.30;99.90;;;7.61;100.00;103546.44;4167409;28;20493;-70
2022/01/13 03:00:25;;;;;;;11.70;9.15;;;8.60;99.90;;;7.72;100.00;103552.06;4168276;28;20040;-70
2022/01/13 03:02:30;;;;;;;9.27;8.38;;;8.50;99.90;;;7.68;100.00;103557.50;4201271;28;20082;-70
2022/01/13 03:04:32;;;;;;;9.10;8.05;;;8.40;99.90;;;7.64;100.00;103546.31;4177137;28;20044;-70
2022/01/13 03:06:36;;;;;;;8.90;8.00;;;8.30;99.90;;;7.85;100.00;103557.63;4140341;28;20026;-70
2022/01/13 03:08:41;;;;;;;9.88;8.82;;;8.40;99.90;;;7.66;100.00;103547.09;4151946;28;20077;-70
2022/01/13 03:10:42;;;;;;;9.75;8.75;;;8.40;99.90;;;7.57;100.00;103542.25;4145698;28;20113;-70
2022/01/13 03:12:45;;;;;;;9.80;8.80;;;8.40;99.90;;;7.66;100.00;103539.19;4176111;28;20061;-70
2022/01/13 03:14:46;;;;;;;10.00;9.00;;;7.60;99.90;;;7.75;100.00;103541.41;4198771;28;20040;-70
2022/01/13 03:16:47;;;;;;;9.63;8.13;;;8.30;99.90;;;7.78;100.00;103537.78;4151338;28;20042;-70
2022/01/13 03:18:48;;;;;;;9.73;8.65;;;8.40;99.90;;;7.69;100.00;103530.31;4140749;28;20425;-70
2022/01/13 03:20:49;;;;;;;9.85;8.63;;;8.40;99.90;;;7.65;100.00;103534.00;4159481;28;20112;-70
2022/01/13 03:22:50;;;;;;;11.13;9.52;;;7.40;99.90;;;7.59;100.00;103534.28;4141897;28;20117;-70
2022/01/13 03:24:51;;;;;;;9.95;8.77;;;8.40;99.90;;;7.55;100.00;103528.34;4153031;28;20045;-70
2022/01/13 03:26:53;;;;;;;9.80;8.80;;;8.30;99.90;;;7.49;100.00;103533.84;4167420;28;20029;-70
2022/01/13 03:29:04;;;;;;;9.98;8.73;;;8.30;99.90;;;7.56;100.00;103526.53;4184277;28;20028;-70
2022/01/13 03:31:07;;;;;;;10.02;8.82;;;8.30;99.90;;;7.62;100.00;103519.22;4167917;28;20024;-71
2022/01/13 03:33:08;;;;;;;9.20;7.97;;;8.80;99.90;;;7.61;100.00;103522.81;4167676;28;20032;-71
2022/01/13 03:35:09;;;;;;;9.02;8.10;;;8.20;99.90;;;7.59;100.00;103529.03;4167879;28;20029;-70
2022/01/13 03:37:10;;;;;;;10.38;9.35;;;7.90;99.90;;;7.67;100.00;103526.94;4167495;28;20040;-70
2022/01/13 03:39:15;;;;;;;9.57;8.50;;;8.00;99.90;;;7.65;100.00;103524.34;4164285;28;20508;-70
2022/01/13 03:41:18;;;;;;;8.23;7.35;;;8.30;99.90;;;7.79;100.00;103524.56;4154670;28;20052;-70
2022/01/13 03:43:19;;;;;;;8.80;7.90;;;8.20;99.90;;;7.74;100.00;103517.81;4151307;28;20030;-70
2022/01/13 03:45:21;;;;;;;9.38;8.35;;;8.40;99.90;;;7.62;100.00;103516.59;4183927;28;20086;-70
2022/01/13 03:47:22;;;;;;;9.68;8.68;;;8.40;99.90;;;7.53;100.00;103509.13;4167352;28;20045;-70
2022/01/13 03:49:23;;;;;;;9.30;8.30;;;8.20;99.90;;;7.48;100.00;103516.38;4167518;28;20021;-70
2022/01/13 03:51:24;;;;;;;8.52;7.60;;;8.20;99.90;;;7.65;100.00;103508.59;4162820;28;20026;-70
2022/01/13 03:53:28;;;;;;;8.75;7.88;;;8.30;99.90;;;7.61;100.00;103514.06;4143963;28;20036;-70
2022/01/13 03:55:40;;;;;;;8.88;7.93;;;7.80;99.90;;;7.59;100.00;103508.00;4168817;28;20048;-70
2022/01/13 03:58:24;;;;;;;9.23;7.50;;;8.30;99.90;;;7.65;100.00;103511.22;4168381;28;20471;-70
2022/01/13 04:01:29;;;;;;;8.05;7.25;;;8.20;99.90;;;7.59;100.00;103495.72;4167259;28;20120;-70
2022/01/13 04:03:30;;;;;;;11.45;7.50;;;8.20;99.90;;;7.47;100.00;103498.06;4156897;28;20077;-70
2022/01/13 04:05:31;;;;;;;7.85;6.95;;;8.20;99.90;;;7.48;100.00;103505.03;4167070;28;20073;-71
2022/01/13 04:07:31;;;;;;;8.35;7.35;;;8.10;99.90;;;7.39;100.00;103502.81;4172538;28;20068;-70
2022/01/13 04:09:35;;;;;;;8.68;7.63;;;8.10;99.90;;;7.34;100.00;103503.03;4149338;28;20122;-70
2022/01/13 04:11:36;;;;;;;7.30;6.60;;;8.00;99.90;;;7.34;100.00;103499.53;4166954;28;20029;-70
2022/01/13 04:13:47;;;;;;;8.13;7.32;;;8.10;99.90;;;7.34;100.00;103497.78;4134333;28;20273;-70
2022/01/13 04:15:50;;;;;;;7.97;7.18;;;8.00;99.90;;;7.39;100.00;103495.78;4138978;28;20022;-70
2022/01/13 04:17:51;;;;;;;8.85;7.95;;;7.90;99.90;;;7.48;100.00;103498.00;4161340;28;20037;-70
2022/01/13 04:19:53;;;;;;;7.97;7.03;;;7.90;99.90;;;7.43;100.00;103496.50;4167123;28;20037;-70
2022/01/13 04:21:53;;;;;;;8.43;7.40;;;8.10;99.90;;;7.37;100.00;103508.13;4146035;28;20109;-70
2022/01/13 04:23:56;;;;;;;8.30;7.38;;;7.80;99.90;;;7.05;100.00;103498.16;4134307;28;20042;-70
2022/01/13 04:25:58;;;;;;;8.10;7.20;;;7.70;99.90;;;6.94;100.00;103488.13;4161757;28;20911;-70
2022/01/13 04:28:02;;;;;;;7.90;7.10;;;7.60;99.90;;;6.93;100.00;103494.28;4166743;28;20033;-70
2022/01/13 04:32:16;;;;;;;6.78;6.00;;;7.40;99.90;;;6.72;100.00;103497.00;4182280;28;20504;-70
2022/01/13 04:34:18;;;;;;;7.72;6.90;;;7.30;99.90;;;6.69;100.00;103504.06;4166837;28;20465;-70
2022/01/13 04:36:19;;;;;;;7.35;6.63;;;7.30;99.90;;;6.72;100.00;103507.50;4166601;28;20044;-70
2022/01/13 04:38:20;;;;;;;7.07;6.38;;;7.80;99.90;;;6.64;100.00;103505.16;4166816;28;20033;-70
2022/01/13 04:40:21;;;;;;;6.93;6.00;;;7.20;99.90;;;6.65;100.00;103497.25;4166824;28;20400;-70
2022/01/13 04:42:22;;;;;;;7.47;6.68;;;6.80;99.90;;;6.56;100.00;103499.38;4166388;28;20040;-70
2022/01/13 04:44:25;;;;;;;6.30;5.60;;;6.80;99.90;;;6.41;100.00;103500.00;4150169;28;20057;-70
2022/01/13 04:46:27;;;;;;;6.47;5.10;;;6.90;99.90;;;6.35;100.00;103492.41;4166520;28;20085;-70
2022/01/13 04:48:28;;;;;;;6.25;5.65;;;6.80;99.90;;;6.32;100.00;103497.75;4166590;28;20031;-70
2022/01/13 04:50:29;;;;;;;6.25;5.47;;;6.80;99.90;;;6.39;100.00;103496.59;4150249;28;20033;-70
2022/01/13 04:52:30;;;;;;;5.43;4.93;;;7.60;99.90;;;6.52;100.00;103490.78;4166601;28;20028;-70
2022/01/13 04:54:31;;;;;;;7.40;5.00;;;6.60;99.90;;;6.51;100.00;103486.44;4166580;28;20033;-70
2022/01/13 04:57:05;;;;;;;5.43;4.90;;;6.80;99.90;;;6.40;100.00;103490.44;4182576;28;20059;-70
2022/01/13 04:58:54;;;;;;;4.50;4.10;;;6.80;99.90;;;6.25;100.00;103480.56;4165026;28;20045;-70
2022/01/13 05:00:54;;;;;;;6.07;5.57;;;6.90;99.90;;;6.23;100.00;103492.88;4166408;28;20017;-70
2022/01/13 05:02:56;;;;;;;5.82;5.32;;;6.60;99.90;;;6.27;100.00;103497.09;4166491;28;20032;-70
2022/01/13 05:04:57;;;;;;;6.35;4.65;;;6.60;99.90;;;6.13;100.00;103493.25;4166482;28;20033;-70
2022/01/13 05:06:59;;;;;;;5.15;4.65;;;6.50;99.90;;;6.01;100.00;103482.38;4179753;28;20498;-70
2022/01/13 05:09:00;;;;;;;5.38;4.88;;;6.40;99.90;;;5.98;100.00;103498.22;4179022;28;20124;-70
2022/01/13 05:11:01;;;;;;;5.57;5.03;;;6.30;99.90;;;5.84;100.00;103487.38;4173465;28;20066;-70
2022/01/13 05:13:07;;;;;;;7.13;6.05;;;6.30;99.90;;;5.85;100.00;103491.72;4188837;28;20057;-70
2022/01/13 05:15:18;;;;;;;5.47;4.93;;;6.10;99.90;;;5.76;100.00;103494.69;4157273;28;20064;-70
2022/01/13 05:20:11;;;;;;;5.88;4.97;;;6.10;99.90;;;5.76;100.00;103490.31;4162959;28;20033;-70
2022/01/13 05:24:14;;;;;;;6.20;5.43;;;6.00;99.90;;;5.91;100.00;103504.63;4158966;28;20025;-70
2022/01/13 05:26:16;;;;;;;6.15;5.20;;;6.10;99.90;;;5.78;100.00;103493.72;4165846;28;20033;-70
2022/01/13 05:28:17;;;;;;;7.05;5.97;;;6.30;99.90;;;5.70;100.00;103487.06;4167673;28;20029;-70
2022/01/13 05:30:19;;;;;;;6.32;5.72;;;6.10;99.90;;;5.65;100.00;103474.13;4155359;28;20030;-70
2022/01/13 05:32:19;;;;;;;7.22;5.55;;;6.10;99.90;;;5.80;100.00;103481.41;4171735;28;20026;-70
2022/01/13 05:34:20;;;;;;;9.02;5.68;;;6.10;99.90;;;5.63;100.00;103470.72;4171716;28;20528;-70
2022/01/13 05:36:22;;;;;;;5.93;5.03;;;7.80;99.90;;;5.66;100.00;103480.22;4171527;28;20033;-70
2022/01/13 05:38:23;;;;;;;6.50;5.90;;;5.70;99.90;;;5.65;100.00;103483.75;4155156;28;20456;-70
2022/01/13 05:40:24;;;;;;;10.30;6.22;;;6.60;99.90;;;5.48;100.00;103487.88;4155203;28;20034;-70
2022/01/13 05:42:25;;;;;;;5.50;5.00;;;6.00;99.90;;;5.48;100.00;103492.22;4187853;28;20055;-70
2022/01/13 05:44:26;;;;;;;5.80;5.20;;;5.80;99.90;;;5.34;100.00;103494.50;4181519;28;20088;-70
2022/01/13 05:46:27;;;;;;;6.82;5.85;;;5.70;99.90;;;5.20;100.00;103505.44;4138644;28;20030;-70
2022/01/13 05:48:28;;;;;;;7.25;6.43;;;5.60;99.90;;;5.52;100.00;103499.09;4146974;28;20497;-70
2022/01/13 05:50:31;;;;;;;6.93;6.22;;;5.70;99.90;;;5.30;100.00;103504.22;4171561;28;20072;-70
2022/01/13 05:52:32;;;;;;;6.03;5.53;;;5.90;99.90;;;5.20;100.00;103500.22;4171479;28;20524;-70
2022/01/13 05:54:33;;;;;;;6.68;5.63;;;5.70;99.90;;;5.26;100.00;103505.22;4171460;28;20029;-70
2022/01/13 05:56:34;;;;;;;6.10;5.53;;;5.90;99.90;;;5.29;100.00;103502.50;4154612;28;20034;-70
2022/01/13 05:58:35;;;;;;;6.82;6.13;;;5.60;99.90;;;5.23;100.00;103492.25;4171391;28;20040;-70
2022/01/13 06:00:37;;;;;;;9.25;6.95;;;5.60;99.90;;;5.19;100.00;103503.75;4171482;28;20033;-70
2022/01/13 06:02:39;;;;;;;9.45;6.38;;;5.50;99.90;;;5.06;100.00;103499.84;4171423;28;20029;-70
2022/01/13 06:04:39;;;;;;;8.27;6.68;;;5.50;99.90;;;5.06;100.00;103496.38;4171486;28;20056;-70
2022/01/13 06:06:40;;;;;;;7.10;5.93;;;5.50;99.90;;;5.17;100.00;103494.25;4154744;28;20030;-70
2022/01/13 06:08:41;;;;;;;6.55;5.95;;;5.40;99.90;;;5.17;100.00;103487.25;4154657;28;20153;-70
2022/01/13 06:10:45;;;;;;;6.03;5.43;;;5.50;99.90;;;5.07;100.00;103478.03;4172292;28;20029;-70
2022/01/13 06:12:49;;;;;;;5.97;5.38;;;6.10;99.90;;;5.10;100.00;103484.91;4171586;28;20030;-70
2022/01/13 06:14:50;;;;;;;6.00;5.43;;;5.40;99.90;;;5.23;100.00;103497.50;4187674;28;20030;-70
2022/01/13 06:16:52;;;;;;;6.50;5.88;;;5.50;99.90;;;5.21;100.00;103496.69;4154483;28;20281;-70
2022/01/13 06:18:53;;;;;;;6.43;5.70;;;4.80;99.90;;;5.11;100.00;103484.00;4177556;28;20472;-70
2022/01/13 06:20:54;;;;;;;6.85;6.22;;;5.00;99.90;;;5.13;100.00;103495.25;4189062;28;20029;-70
2022/01/13 06:22:57;;;;;;;6.13;5.53;;;5.50;99.90;;;5.02;100.00;103490.41;4171756;28;20029;-70
2022/01/13 06:24:59;;;;;;;6.93;5.75;;;5.50;99.90;;;4.98;100.00;103496.66;4151486;28;20066;-70
2022/01/13 06:27:00;;;;;;;6.93;6.22;;;5.60;99.90;;;5.16;100.00;103485.56;4161226;28;20026;-70
2022/01/13 06:29:01;;;;;;;8.02;6.63;;;5.60;99.90;;;5.18;100.00;103491.56;4160935;28;20037;-70
2022/01/13 06:31:02;;;;;;;7.22;5.82;;;5.50;99.90;;;5.20;100.00;103492.38;4171063;28;20018;-70
2022/01/13 06:33:04;;;;;;;6.43;5.80;;;5.90;99.90;;;5.06;100.00;103496.38;4164395;28;20036;-70
2022/01/13 06:35:06;;;;;;;7.22;5.40;;;7.00;99.90;;;4.94;100.00;103482.81;4161544;28;20025;-70
2022/01/13 06:37:06;;;;;;;5.88;5.18;;;5.40;99.90;;;5.05;100.00;103497.31;4154569;28;20037;-70
2022/01/13 06:39:07;;;;;;;6.28;5.68;;;5.50;99.90;;;4.80;100.00;103494.66;4154511;28;20056;-70
2022/01/13 06:41:09;;;;;;;5.93;5.32;;;4.80;99.90;;;4.80;100.00;103495.53;4183589;28;20064;-70
2022/01/13 06:43:09;;;;;;;7.05;5.57;;;5.40;99.90;;;4.76;100.00;103500.91;4168425;28;20454;-70
2022/01/13 06:45:11;;;;;;;6.78;5.88;;;5.30;99.90;;;4.78;100.00;103494.69;4158447;28;20097;-70
2022/01/13 06:47:12;;;;;;;8.85;6.70;;;4.90;99.90;;;4.92;100.00;103495.09;4166462;28;20029;-70
2022/01/13 06:49:13;;;;;;;7.35;6.38;;;3.50;99.90;;;4.88;100.00;103492.63;4168211;28;20025;-70
2022/01/13 06:51:14;;;;;;;7.57;5.40;;;5.20;99.90;;;4.80;100.00;103506.00;4164999;28;20033;-71
2022/01/13 06:53:15;;;;;;;6.45;5.80;;;4.80;99.90;;;4.77;100.00;103519.16;4135669;28;20445;-71
2022/01/13 06:55:16;;;;;;;7.03;6.32;;;7.10;99.90;;;4.69;100.00;103517.72;4162893;28;20025;-71
2022/01/13 06:57:17;;;;;;;6.65;6.05;;;5.10;99.90;;;4.87;100.00;103509.22;4151397;28;20037;-71
2022/01/13 06:59:18;;;;;;;6.25;5.57;;;5.20;99.90;;;4.87;100.00;103511.84;4201249;28;20597;-72
2022/01/13 07:01:21;;;;;;;8.43;6.25;;;5.20;99.90;;;4.88;100.00;103522.25;4185050;28;20522;-71
2022/01/13 07:03:22;;;;;;;7.25;6.00;;;5.80;99.90;;;4.76;100.00;103512.22;4168365;28;20036;-71
2022/01/13 07:05:24;;;;;;;7.18;5.65;;;5.10;99.90;;;4.67;100.00;103517.75;4167950;28;20021;-72
2022/01/13 07:07:26;;;;;;;7.50;6.50;;;5.20;99.90;;;4.62;100.00;103510.97;4167913;28;20046;-72
2022/01/13 07:09:27;;;;;;;9.98;6.15;;;5.20;99.90;;;4.47;100.00;103507.09;4168061;28;20124;-71
2022/01/13 07:11:28;;;;;;;6.97;6.03;;;4.40;99.90;;;4.43;100.00;103490.66;4167739;28;20095;-71
2022/01/13 07:13:29;;;;;;;6.65;5.97;;;5.00;99.90;;;4.51;100.00;103500.84;4184431;28;20025;-71
2022/01/13 07:15:31;;;;;;;7.55;6.45;;;5.00;99.90;;;4.81;100.00;103505.06;4167692;28;20033;-71
2022/01/13 07:17:33;;;;;;;8.23;6.63;;;5.00;99.90;;;4.62;100.00;103501.38;4151477;28;20022;-72
2022/01/13 07:19:34;;;;;;;8.15;6.93;;;5.50;99.90;;;4.76;100.00;103506.97;4184229;28;20043;-72
2022/01/13 07:21:35;;;;;;;6.57;5.97;;;4.80;99.90;;;4.47;100.00;103500.09;4149337;28;20038;-71
2022/01/13 07:23:36;;;;;;;7.43;6.60;;;4.40;99.90;;;4.47;100.00;103505.34;4151471;28;20034;-72
2022/01/13 07:25:38;;;;;;;7.93;6.57;;;5.00;99.90;;;4.69;100.00;103502.03;4159411;28;20471;-71
2022/01/13 07:27:40;;;;;;;6.65;6.00;;;4.90;99.90;;;4.65;100.00;103505.63;4167722;28;20124;-71
2022/01/13 07:29:45;;;;;;;7.05;6.18;;;4.90;99.90;;;4.61;100.00;103506.63;4167491;28;20030;-71
2022/01/13 07:31:47;;;;;;;7.18;6.47;;;5.10;99.90;;;4.39;100.00;103491.63;4167858;28;20059;-71
2022/01/13 07:33:48;;;;;;;8.30;7.30;;;5.00;99.90;;;4.57;100.00;103510.28;4167583;28;20030;-72
2022/01/13 07:35:50;;;;;;;7.78;6.97;;;5.00;99.90;;;4.57;100.00;103520.72;4167031;28;20041;-72
2022/01/13 07:37:51;;;;;;;8.68;6.72;;;4.90;99.90;;;4.47;100.00;103507.94;4151000;28;20937;-72
2022/01/13 07:39:52;;;;;;;12.48;6.88;;;5.00;99.90;;;4.41;100.00;103505.53;4168749;28;20064;-72
2022/01/13 07:41:53;;;;;;;8.93;7.40;;;3.80;99.90;;;4.65;100.00;103508.25;4167267;28;20026;-72
2022/01/13 07:43:55;;;;;;;8.80;7.90;;;4.10;99.90;;;4.55;100.00;103514.66;4167536;28;20464;-72
2022/01/13 07:45:56;;;;;;;8.05;7.25;;;5.00;99.90;;;4.55;100.00;103509.44;4180561;28;20036;-72
2022/01/13 07:47:57;;;;;;;8.45;7.45;;;4.90;99.90;;;4.51;100.00;103518.31;4167030;28;20032;-72
2022/01/13 07:49:58;;;;;;;8.07;7.28;;;4.90;99.90;;;4.41;100.00;103505.53;4174901;28;20397;-72
2022/01/13 07:51:59;;;;;;;9.25;7.97;;;4.90;99.90;;;4.40;100.00;103519.50;4156346;28;20045;-72
2022/01/13 07:54:01;;;;;;;9.57;7.65;;;4.80;99.90;;;4.59;100.00;103517.16;4151013;28;20072;-72
2022/01/13 07:56:02;;;;;;;9.57;7.85;;;5.10;99.90;;;4.60;100.00;103521.44;4158299;28;20494;-72
2022/01/13 07:58:03;;;;;;;9.85;8.63;;;4.80;99.90;;;4.50;100.00;103516.59;4169327;28;20029;-72
2022/01/13 08:00:07;;;;;;;8.85;7.70;;;5.50;99.90;;;4.71;100.00;103511.53;4161528;28;20084;-72
2022/01/13 08:02:08;;;;;;;;;;;4.90;99.90;;;4.64;100.00;103516.97;4167544;28;20025;-72
2022/01/13 08:04:09;;;;;;;7.97;7.18;;;5.00;99.90;;;4.61;100.00;103515.31;4183522;28;19913;-72
2022/01/13 08:06:10;;;;;;;8.93;7.60;;;4.90;99.90;;;4.68;100.00;103529.06;4166853;28;20080;-72
2022/01/13 08:08:11;;;;;;;8.98;7.78;;;5.80;99.90;;;4.52;100.00;103510.41;4166949;28;20072;-72
2022/01/13 08:10:12;;;;;;;8.82;7.70;;;4.90;99.90;;;4.53;100.00;103519.09;4164887;28;20033;-72
2022/01/13 08:12:13;;;;;;;8.52;7.68;;;5.20;99.90;;;4.52;100.00;103514.75;4174313;28;20030;-72
2022/01/13 08:14:14;;;;;;;9.50;8.10;;;4.90;99.90;;;4.66;100.00;103513.41;4150652;28;20032;-72
2022/01/13 08:16:17;;;;;;;8.10;7.30;;;5.00;99.90;;;4.70;100.00;103506.31;4177010;28;20021;-72
2022/01/13 08:20:37;;;;;;;10.77;8.10;;;4.40;99.90;;;4.54;100.00;103521.66;4151881;28;20048;-72
2022/01/13 08:22:39;;;;;;;10.02;8.35;;;5.50;99.90;;;4.40;100.00;103519.50;4153178;28;20473;-72
2022/01/13 08:24:40;;;;;;;8.60;7.70;;;4.90;99.90;;;4.40;100.00;103505.56;4176998;28;20025;-72
2022/01/13 08:26:41;;;;;;;10.85;9.10;;;4.90;99.90;;;4.52;100.00;103507.78;4150039;28;20585;-72
2022/01/13 08:28:42;;;;;;;9.60;8.40;;;5.00;99.90;;;4.46;100.00;103503.63;4150556;28;20033;-72
2022/01/13 08:30:44;;;;;;;10.40;8.48;;;5.00;99.90;;;4.44;100.00;103505.44;4150355;28;20029;-72
2022/01/13 08:32:45;;;;;;;9.68;8.45;;;5.00;99.90;;;4.54;100.00;103518.22;4148020;28;20030;-72
2022/01/13 08:34:46;;;;;;;10.10;8.48;;;5.00;99.90;;;4.68;100.00;103516.00;4162692;28;20029;-71
2022/01/13 08:36:47;;;;;;;9.15;8.20;;;5.00;99.90;;;4.66;100.00;103509.97;4150171;28;20056;-72
2022/01/13 08:38:49;;;;;;;9.32;7.85;;;5.10;99.90;;;4.91;100.00;103516.06;4150410;28;20040;-72
2022/01/13 08:40:56;;;;;;;10.30;8.27;;;5.20;99.90;;;4.97;100.00;103518.47;4149899;28;20477;-72
2022/01/13 08:42:58;;;;;;;9.25;8.35;;;5.20;99.90;;;5.07;100.00;103519.88;4150351;28;20026;-72
2022/01/13 08:44:59;;;;;;;8.98;8.07;;;5.30;99.90;;;4.95;100.00;103525.53;4133831;28;20077;-72
2022/01/13 08:47:00;;;;;;;8.30;7.50;;;5.90;99.90;;;4.85;100.00;103527.59;4173339;28;20033;-72
2022/01/13 08:49:03;;;;;;;10.90;8.55;;;5.40;99.90;;;4.69;100.00;103522.94;4151460;28;20038;-72
2022/01/13 08:51:04;;;;;;;10.93;9.02;;;5.40;99.90;;;4.97;100.00;103528.94;4149837;28;20026;-72
2022/01/13 08:53:06;;;;;;;10.63;8.82;;;5.20;99.90;;;5.19;100.00;103523.84;4153430;28;20092;-72